Time;durP1;ratioP1;P1;durP2;ratioP2;P2;SDS_P1;SDS_P2;PMS_P1;PMS_P2;Temp;Humidity;BMP_temperature;BMP_pressure;BME280_temperature;BME280_humidity;BME280_pressure;Samples;Min_cycle;Max_cycle;Signal;HPM_P1;HPM_P2
2022/07/06 00:01:28;;;;;;;9.75;2.28;;;;;;;;;;5150636;27;20047;-81
2022/07/06 00:03:54;;;;;;;10.85;2.40;;;;;;;;;;5144683;27;20061;-84
2022/07/06 00:06:20;;;;;;;11.27;2.42;;;;;;;;;;5150929;27;20093;-82
2022/07/06 00:08:46;;;;;;;9.55;2.10;;;;;;;;;;5124842;27;20038;-81
2022/07/06 00:11:12;;;;;;;11.02;2.50;;;;;;;;;;5133014;27;20031;-81
2022/07/06 00:13:39;;;;;;;11.63;2.20;;;;;;;;;;5145486;27;20047;-82
2022/07/06 00:16:04;;;;;;;;;;;;;;;;;;5135863;27;20038;-79
2022/07/06 00:18:30;;;;;;;9.55;2.35;;;;;;;;;;5150591;27;20235;-82
2022/07/06 00:20:57;;;;;;;10.43;2.60;;;;;;;;;;5150381;27;20039;-83
2022/07/06 00:23:23;;;;;;;7.97;2.13;;;;;;;;;;5135580;27;20046;-86
2022/07/06 00:25:49;;;;;;;9.80;2.45;;;;;;;;;;5132378;27;20102;-81
2022/07/06 00:28:15;;;;;;;;;;;;;;;;;;5149644;27;20521;-82
2022/07/06 00:30:41;;;;;;;9.40;2.58;;;;;;;;;;5134239;27;20002;-81
2022/07/06 00:33:07;;;;;;;9.00;2.35;;;;;;;;;;5131068;27;20336;-84
2022/07/06 00:35:33;;;;;;;10.88;2.53;;;;;;;;;;5134484;27;20042;-83
2022/07/06 00:37:59;;;;;;;8.75;2.65;;;;;;;;;;5148647;27;20060;-86
2022/07/06 00:40:25;;;;;;;11.40;2.65;;;;;;;;;;5138984;27;20052;-80
2022/07/06 00:42:51;;;;;;;9.40;2.58;;;;;;;;;;5151908;27;20074;-82
2022/07/06 00:45:18;;;;;;;8.73;2.38;;;;;;;;;;5143117;27;20110;-84
2022/07/06 00:47:45;;;;;;;9.82;2.50;;;;;;;;;;5147444;27;20085;-81
2022/07/06 00:50:17;;;;;;;10.52;2.50;;;;;;;;;;5138433;27;20042;-83
2022/07/06 00:52:48;;;;;;;9.55;2.45;;;;;;;;;;5151400;27;20077;-83
2022/07/06 00:55:16;;;;;;;8.95;2.58;;;;;;;;;;5118890;27;20043;-82
2022/07/06 00:57:42;;;;;;;11.63;2.80;;;;;;;;;;5133489;27;20138;-84
2022/07/06 01:00:09;;;;;;;10.77;2.75;;;;;;;;;;5143946;27;20070;-86
2022/07/06 01:02:36;;;;;;;8.18;2.20;;;;;;;;;;5149782;27;20043;-86
2022/07/06 01:05:04;;;;;;;9.60;2.58;;;;;;;;;;5141890;27;20051;-85
2022/07/06 01:07:30;;;;;;;8.35;2.50;;;;;;;;;;5112886;27;20054;-87
2022/07/06 01:09:56;;;;;;;;;;;;;;;;;;5138798;27;20046;-92
2022/07/06 01:12:23;;;;;;;8.80;2.60;;;;;;;;;;5151243;27;19918;-87
2022/07/06 01:14:50;;;;;;;8.57;2.95;;;;;;;;;;5142231;27;20141;-88
2022/07/06 01:17:16;;;;;;;7.78;2.33;;;;;;;;;;5144089;27;20042;-88
2022/07/06 01:19:42;;;;;;;9.75;2.20;;;;;;;;;;5145113;27;20054;-87
2022/07/06 01:22:08;;;;;;;10.07;2.75;;;;;;;;;;5130413;27;20094;-85
2022/07/06 01:24:38;;;;;;;11.18;2.63;;;;;;;;;;5130005;27;20451;-85
2022/07/06 01:27:05;;;;;;;15.80;2.58;;;;;;;;;;5146054;27;20043;-92
2022/07/06 01:29:32;;;;;;;8.02;2.60;;;;;;;;;;5148452;27;20074;-89
2022/07/06 01:31:58;;;;;;;15.20;2.65;;;;;;;;;;5150694;27;20043;-84
2022/07/06 01:34:24;;;;;;;;;;;;;;;;;;5127469;27;20457;-83
2022/07/06 01:36:50;;;;;;;12.43;2.58;;;;;;;;;;5130505;27;19915;-85
2022/07/06 01:39:16;;;;;;;8.23;2.45;;;;;;;;;;5146442;27;20111;-86
2022/07/06 01:41:42;;;;;;;13.52;2.50;;;;;;;;;;5132044;27;20043;-82
2022/07/06 01:44:08;;;;;;;;;;;;;;;;;;5130339;27;20108;-89
2022/07/06 01:46:34;;;;;;;9.82;2.05;;;;;;;;;;5131330;27;19919;-90
2022/07/06 01:49:01;;;;;;;12.82;2.70;;;;;;;;;;5141536;27;20102;-91
2022/07/06 01:51:27;;;;;;;10.73;2.55;;;;;;;;;;5135305;27;20098;-90
2022/07/06 01:54:06;;;;;;;10.07;2.23;;;;;;;;;;5147278;27;1274252;-89
2022/07/06 01:56:32;;;;;;;11.15;2.67;;;;;;;;;;5164218;27;20047;-89
2022/07/06 01:58:58;;;;;;;9.90;2.42;;;;;;;;;;5159932;27;20355;-87
2022/07/06 02:01:25;;;;;;;8.40;2.13;;;;;;;;;;5155656;27;20047;-80
2022/07/06 02:03:51;;;;;;;9.45;2.17;;;;;;;;;;5148602;27;20046;-82
2022/07/06 02:06:17;;;;;;;11.40;2.63;;;;;;;;;;5157073;27;20042;-86
2022/07/06 02:08:43;;;;;;;9.90;2.45;;;;;;;;;;5160721;27;20179;-80
2022/07/06 02:11:10;;;;;;;10.98;2.40;;;;;;;;;;5156295;27;20178;-85
2022/07/06 02:13:36;;;;;;;8.75;2.55;;;;;;;;;;5164553;27;20046;-85
2022/07/06 02:16:02;;;;;;;8.95;2.50;;;;;;;;;;5158000;27;20039;-82
2022/07/06 02:18:29;;;;;;;12.63;2.30;;;;;;;;;;5146676;27;20511;-79
2022/07/06 02:20:55;;;;;;;;;;;;;;;;;;5154375;27;20112;-85
2022/07/06 02:23:21;;;;;;;9.77;2.85;;;;;;;;;;5161081;27;20038;-85
2022/07/06 02:25:47;;;;;;;10.40;2.30;;;;;;;;;;5126454;27;20764;-81
2022/07/06 02:28:13;;;;;;;9.73;2.17;;;;;;;;;;5149670;27;20046;-85
2022/07/06 02:30:39;;;;;;;10.35;2.60;;;;;;;;;;5162448;27;20073;-89
2022/07/06 02:33:05;;;;;;;11.05;2.35;;;;;;;;;;5146686;27;20047;-83
2022/07/06 02:35:31;;;;;;;12.02;2.63;;;;;;;;;;5155751;27;20116;-81
2022/07/06 02:37:57;;;;;;;9.60;2.30;;;;;;;;;;5146851;27;20053;-81
2022/07/06 02:40:23;;;;;;;10.10;2.35;;;;;;;;;;5154331;27;20047;-85
2022/07/06 02:42:49;;;;;;;11.45;2.25;;;;;;;;;;5127398;27;20055;-87
2022/07/06 02:45:15;;;;;;;10.32;2.30;;;;;;;;;;5157604;27;20133;-82
2022/07/06 02:47:41;;;;;;;12.07;2.95;;;;;;;;;;5147775;27;20149;-86
2022/07/06 02:50:07;;;;;;;9.02;2.38;;;;;;;;;;5126399;27;20058;-85
2022/07/06 02:52:33;;;;;;;;;;;;;;;;;;5161665;27;20374;-84
2022/07/06 02:54:59;;;;;;;9.48;2.50;;;;;;;;;;5148047;27;19938;-89
2022/07/06 02:57:25;;;;;;;9.88;2.53;;;;;;;;;;5163327;27;20100;-83
2022/07/06 02:59:51;;;;;;;11.07;2.40;;;;;;;;;;5149094;27;20244;-88
2022/07/06 03:02:18;;;;;;;10.20;2.53;;;;;;;;;;5158465;27;20426;-88
2022/07/06 03:04:44;;;;;;;;;;;;;;;;;;5163690;27;20198;-89
2022/07/06 03:07:10;;;;;;;12.55;2.85;;;;;;;;;;5132757;27;19925;-85
2022/07/06 03:09:36;;;;;;;14.20;2.80;;;;;;;;;;5136022;27;20047;-85
2022/07/06 03:12:02;;;;;;;8.60;2.65;;;;;;;;;;5132169;27;20049;-87
2022/07/06 03:14:28;;;;;;;10.35;3.08;;;;;;;;;;5135434;27;20123;-90
2022/07/06 03:16:55;;;;;;;10.18;2.80;;;;;;;;;;5134275;27;20562;-87
2022/07/06 03:19:21;;;;;;;8.98;2.78;;;;;;;;;;5118889;27;20043;-85
2022/07/06 03:21:47;;;;;;;12.57;2.95;;;;;;;;;;5133053;27;20367;-86
2022/07/06 03:24:13;;;;;;;;;;;;;;;;;;5114269;27;20043;-87
2022/07/06 03:26:39;;;;;;;13.65;3.00;;;;;;;;;;5130009;27;19930;-82
2022/07/06 03:29:05;;;;;;;11.43;3.20;;;;;;;;;;5145236;27;20141;-84
2022/07/06 03:31:31;;;;;;;12.52;3.35;;;;;;;;;;5111874;27;20046;-85
2022/07/06 03:33:57;;;;;;;15.10;2.92;;;;;;;;;;5150273;27;20079;-85
2022/07/06 03:36:23;;;;;;;10.23;2.92;;;;;;;;;;5143616;27;20070;-85
2022/07/06 03:38:49;;;;;;;9.70;2.65;;;;;;;;;;5136397;27;20387;-86
2022/07/06 03:41:15;;;;;;;8.90;2.70;;;;;;;;;;5116946;27;20205;-85
2022/07/06 03:43:42;;;;;;;12.30;2.85;;;;;;;;;;5130869;27;20050;-86
2022/07/06 03:46:08;;;;;;;13.38;3.00;;;;;;;;;;5134383;27;20177;-86
2022/07/06 03:48:34;;;;;;;;;;;;;;;;;;5113936;27;20055;-85
2022/07/06 03:51:00;;;;;;;7.72;2.40;;;;;;;;;;5098684;27;20244;-83
2022/07/06 03:53:26;;;;;;;9.85;2.78;;;;;;;;;;5146665;27;20514;-88
2022/07/06 03:58:37;;;;;;;9.80;2.30;;;;;;;;;;5144721;27;20138;-86
2022/07/06 04:01:03;;;;;;;11.45;2.20;;;;;;;;;;5149193;27;20115;-86
2022/07/06 04:03:29;;;;;;;9.18;2.53;;;;;;;;;;5135283;27;20046;-88
2022/07/06 04:05:55;;;;;;;9.40;2.20;;;;;;;;;;5130389;27;20070;-87
2022/07/06 04:08:21;;;;;;;11.27;2.55;;;;;;;;;;5135664;27;20076;-87
2022/07/06 04:10:47;;;;;;;14.38;2.58;;;;;;;;;;5129237;27;20047;-84
2022/07/06 04:13:13;;;;;;;9.43;2.35;;;;;;;;;;5133562;27;20030;-84
2022/07/06 04:15:39;;;;;;;12.85;2.65;;;;;;;;;;5109336;27;20103;-84
2022/07/06 04:18:06;;;;;;;12.80;2.47;;;;;;;;;;5128396;27;20127;-84
2022/07/06 04:20:32;;;;;;;10.65;2.65;;;;;;;;;;5128972;27;20454;-86
2022/07/06 04:22:58;;;;;;;10.85;2.53;;;;;;;;;;5102460;27;20433;-87
2022/07/06 04:25:24;;;;;;;;;;;;;;;;;;5130131;27;20051;-84
2022/07/06 04:27:50;;;;;;;11.13;2.53;;;;;;;;;;5129515;27;20221;-84
2022/07/06 04:30:16;;;;;;;10.93;2.95;;;;;;;;;;5134421;27;20047;-78
2022/07/06 04:32:42;;;;;;;11.65;2.38;;;;;;;;;;5149330;27;20123;-81
2022/07/06 04:35:09;;;;;;;10.85;2.47;;;;;;;;;;5110630;27;20149;-79
2022/07/06 04:37:35;;;;;;;;;;;;;;;;;;5147193;27;20065;-73
2022/07/06 04:40:01;;;;;;;10.55;2.28;;;;;;;;;;5129425;27;19931;-82
2022/07/06 04:42:27;;;;;;;11.27;2.40;;;;;;;;;;5140052;27;20455;-81
2022/07/06 04:44:53;;;;;;;12.75;2.63;;;;;;;;;;5131301;27;20043;-80
2022/07/06 04:47:19;;;;;;;9.20;2.50;;;;;;;;;;5128748;27;20062;-79
2022/07/06 04:49:45;;;;;;;10.63;2.03;;;;;;;;;;5136483;27;20039;-89
2022/07/06 04:52:11;;;;;;;6.40;1.98;;;;;;;;;;5130346;27;20039;-80
2022/07/06 04:54:38;;;;;;;3.88;1.65;;;;;;;;;;5144453;27;20196;-83
2022/07/06 04:57:05;;;;;;;6.13;1.80;;;;;;;;;;5133757;27;20043;-86
2022/07/06 04:59:31;;;;;;;7.75;1.73;;;;;;;;;;5139873;27;20058;-86
2022/07/06 05:01:57;;;;;;;6.60;1.67;;;;;;;;;;5146086;27;20042;-86
2022/07/06 05:04:24;;;;;;;7.15;1.92;;;;;;;;;;5149370;27;20071;-86
2022/07/06 05:06:50;;;;;;;6.25;1.85;;;;;;;;;;5143558;27;20110;-80
2022/07/06 05:09:16;;;;;;;8.07;1.60;;;;;;;;;;5142999;27;20135;-86
2022/07/06 05:11:43;;;;;;;6.65;1.80;;;;;;;;;;5128401;27;20051;-86
2022/07/06 05:14:10;;;;;;;7.47;1.70;;;;;;;;;;5133445;27;20688;-89
2022/07/06 05:16:36;;;;;;;;;;;;;;;;;;5130203;27;20063;-89
2022/07/06 05:19:02;;;;;;;6.82;1.80;;;;;;;;;;5128282;27;19942;-86
2022/07/06 05:21:28;;;;;;;;;;;;;;;;;;5138759;27;20174;-90
2022/07/06 05:23:54;;;;;;;7.70;1.90;;;;;;;;;;5130714;27;20014;-88
2022/07/06 05:26:20;;;;;;;7.97;1.80;;;;;;;;;;5131720;27;20103;-87
2022/07/06 05:28:46;;;;;;;8.07;1.88;;;;;;;;;;5135239;27;20046;-89
2022/07/06 05:31:12;;;;;;;9.93;2.20;;;;;;;;;;5140663;27;20042;-78
2022/07/06 05:33:39;;;;;;;11.35;3.00;;;;;;;;;;5137326;27;20038;-84
2022/07/06 05:36:05;;;;;;;11.63;2.38;;;;;;;;;;5148945;27;20114;-82
2022/07/06 05:38:31;;;;;;;11.27;2.30;;;;;;;;;;5135945;27;20043;-83
2022/07/06 05:40:57;;;;;;;11.52;2.10;;;;;;;;;;5127889;27;20103;-86
2022/07/06 05:43:23;;;;;;;13.77;2.53;;;;;;;;;;5159517;27;20486;-81
2022/07/06 05:45:49;;;;;;;9.52;2.50;;;;;;;;;;5129340;27;20066;-82
2022/07/06 05:51:00;;;;;;;11.15;2.55;;;;;;;;;;5132568;27;20058;-83
2022/07/06 05:53:26;;;;;;;8.48;2.28;;;;;;;;;;5103658;27;20054;-84
2022/07/06 05:55:52;;;;;;;10.95;2.65;;;;;;;;;;5137963;27;20117;-82
2022/07/06 05:58:18;;;;;;;13.57;2.55;;;;;;;;;;5131878;27;20470;-76
2022/07/06 06:00:44;;;;;;;10.38;2.55;;;;;;;;;;5128516;27;20171;-82
2022/07/06 06:03:11;;;;;;;9.07;2.13;;;;;;;;;;5127857;27;20328;-79
2022/07/06 06:05:38;;;;;;;10.15;2.20;;;;;;;;;;5137215;27;20097;-79
2022/07/06 06:08:04;;;;;;;10.65;2.10;;;;;;;;;;5129206;27;20070;-83
2022/07/06 06:10:30;;;;;;;10.13;2.53;;;;;;;;;;5130898;27;20043;-80
2022/07/06 06:12:56;;;;;;;13.00;2.17;;;;;;;;;;5130922;27;20122;-84
2022/07/06 06:15:22;;;;;;;12.05;2.20;;;;;;;;;;5139770;27;20043;-84
2022/07/06 06:17:48;;;;;;;12.80;2.20;;;;;;;;;;5144444;27;20042;-84
2022/07/06 06:20:15;;;;;;;7.82;2.28;;;;;;;;;;5145730;27;20047;-83
2022/07/06 06:22:45;;;;;;;12.90;2.28;;;;;;;;;;5148999;27;20566;-83
2022/07/06 06:25:11;;;;;;;9.15;2.25;;;;;;;;;;5138815;27;20074;-82
2022/07/06 06:27:37;;;;;;;8.18;1.90;;;;;;;;;;5135594;27;20046;-86
2022/07/06 06:30:04;;;;;;;10.02;2.30;;;;;;;;;;5138465;27;20070;-87
2022/07/06 06:32:30;;;;;;;9.35;2.40;;;;;;;;;;5148668;27;20049;-82
2022/07/06 06:34:56;;;;;;;11.40;2.50;;;;;;;;;;5145631;27;20063;-83
2022/07/06 06:37:22;;;;;;;10.50;2.42;;;;;;;;;;5127514;28;20045;-89
2022/07/06 06:39:48;;;;;;;11.50;2.50;;;;;;;;;;5129962;27;20074;-89
2022/07/06 06:42:14;;;;;;;9.45;2.22;;;;;;;;;;5148469;27;20088;-88
2022/07/06 06:44:40;;;;;;;10.82;2.53;;;;;;;;;;5152344;27;20095;-82
2022/07/06 06:47:06;;;;;;;10.25;2.10;;;;;;;;;;5147577;27;20043;-82
2022/07/06 06:49:32;;;;;;;10.02;2.45;;;;;;;;;;5150129;27;20043;-88
2022/07/06 06:51:58;;;;;;;8.13;2.10;;;;;;;;;;5143388;27;20074;-79
2022/07/06 06:54:24;;;;;;;11.43;2.30;;;;;;;;;;5142263;27;20054;-87
2022/07/06 06:56:50;;;;;;;10.60;2.47;;;;;;;;;;5129077;27;20047;-76
2022/07/06 06:59:16;;;;;;;10.02;2.72;;;;;;;;;;5148205;27;20049;-80
2022/07/06 07:01:42;;;;;;;12.13;3.13;;;;;;;;;;5144375;27;20424;-87
2022/07/06 07:04:09;;;;;;;8.68;2.50;;;;;;;;;;5130695;27;20062;-86
2022/07/06 07:06:35;;;;;;;11.60;2.38;;;;;;;;;;5139490;27;20051;-86
2022/07/06 07:09:01;;;;;;;11.70;2.60;;;;;;;;;;5131529;27;20043;-89
2022/07/06 07:11:27;;;;;;;11.07;2.25;;;;;;;;;;5132083;27;20233;-89
2022/07/06 07:13:53;;;;;;;10.27;2.45;;;;;;;;;;5117919;27;20110;-88
2022/07/06 07:16:19;;;;;;;12.95;2.30;;;;;;;;;;5151732;27;20120;-84
2022/07/06 07:18:45;;;;;;;10.88;2.53;;;;;;;;;;5152329;27;20047;-84
2022/07/06 07:21:11;;;;;;;8.90;1.98;;;;;;;;;;5135393;27;20186;-77
2022/07/06 07:23:37;;;;;;;9.80;2.15;;;;;;;;;;5148685;27;20046;-82
2022/07/06 07:26:03;;;;;;;9.77;2.08;;;;;;;;;;5148959;27;20069;-87
2022/07/06 07:28:29;;;;;;;9.18;2.10;;;;;;;;;;5130899;27;20717;-79
2022/07/06 07:30:55;;;;;;;6.78;1.95;;;;;;;;;;5130742;27;20512;-81
2022/07/06 07:33:21;;;;;;;14.15;2.17;;;;;;;;;;5129968;27;20047;-86
2022/07/06 07:35:47;;;;;;;7.28;1.95;;;;;;;;;;5130872;27;20154;-86
2022/07/06 07:38:13;;;;;;;8.85;1.73;;;;;;;;;;5130418;27;20123;-74
2022/07/06 07:40:40;;;;;;;10.13;1.98;;;;;;;;;;5130789;27;20123;-85
2022/07/06 07:43:06;;;;;;;8.57;1.88;;;;;;;;;;5114826;27;20035;-80
2022/07/06 07:45:32;;;;;;;7.05;1.65;;;;;;;;;;5131998;27;20187;-72
2022/07/06 07:47:58;;;;;;;12.70;2.10;;;;;;;;;;5131026;27;20118;-82
2022/07/06 07:50:24;;;;;;;10.10;1.88;;;;;;;;;;5130306;27;20043;-82
2022/07/06 07:52:50;;;;;;;6.97;1.80;;;;;;;;;;5130206;27;20470;-79
2022/07/06 07:55:16;;;;;;;;;;;;;;;;;;5112174;27;20055;-82
2022/07/06 07:57:42;;;;;;;8.55;1.60;;;;;;;;;;5131111;27;19963;-78
2022/07/06 08:00:09;;;;;;;7.72;1.63;;;;;;;;;;5130205;27;20046;-80
2022/07/06 08:02:35;;;;;;;7.97;1.50;;;;;;;;;;5129656;27;20482;-83
2022/07/06 08:05:01;;;;;;;4.30;1.50;;;;;;;;;;5129928;27;20367;-89
2022/07/06 08:07:27;;;;;;;6.30;1.63;;;;;;;;;;5129786;27;20047;-75
2022/07/06 08:09:53;;;;;;;6.22;1.90;;;;;;;;;;5130520;27;20050;-71
2022/07/06 08:12:19;;;;;;;7.03;1.60;;;;;;;;;;5129628;27;20047;-84
2022/07/06 08:14:46;;;;;;;10.02;1.88;;;;;;;;;;5129496;27;20499;-73
2022/07/06 08:17:12;;;;;;;8.57;1.75;;;;;;;;;;5129806;27;20427;-89
2022/07/06 08:19:38;;;;;;;6.07;1.50;;;;;;;;;;5129382;27;20479;-77
2022/07/06 08:22:06;;;;;;;4.75;1.40;;;;;;;;;;5130725;27;20108;-73
2022/07/06 08:24:36;;;;;;;6.13;1.48;;;;;;;;;;5110125;27;20090;-69
2022/07/06 08:27:03;;;;;;;4.93;1.42;;;;;;;;;;5094205;27;20054;-68
2022/07/06 08:29:29;;;;;;;8.20;1.80;;;;;;;;;;5129483;27;20044;-75
2022/07/06 08:31:55;;;;;;;7.60;1.70;;;;;;;;;;5130314;27;20059;-74
2022/07/06 08:34:21;;;;;;;;;;;;;;;;;;5129903;27;20127;-78
2022/07/06 08:36:47;;;;;;;7.00;1.58;;;;;;;;;;5129241;27;19919;-79
2022/07/06 08:39:13;;;;;;;6.13;1.60;;;;;;;;;;5129502;27;20146;-74
2022/07/06 08:41:41;;;;;;;10.98;1.60;;;;;;;;;;5110527;27;20055;-74
2022/07/06 08:44:09;;;;;;;6.68;1.40;;;;;;;;;;5129723;27;20199;-76
2022/07/06 08:46:38;;;;;;;8.98;1.65;;;;;;;;;;5129085;27;20151;-81
2022/07/06 08:49:05;;;;;;;8.02;1.50;;;;;;;;;;5129739;27;20185;-78
2022/07/06 08:51:31;;;;;;;8.68;1.70;;;;;;;;;;5129258;27;20051;-76
2022/07/06 08:53:57;;;;;;;6.30;1.42;;;;;;;;;;5111092;27;20065;-77
2022/07/06 08:56:23;;;;;;;;;;;;;;;;;;5131437;27;20090;-75
2022/07/06 08:58:49;;;;;;;7.60;1.60;;;;;;;;;;5129372;27;19972;-75
2022/07/06 09:01:16;;;;;;;5.47;1.40;;;;;;;;;;5130500;27;20058;-86
2022/07/06 09:03:44;;;;;;;6.57;1.58;;;;;;;;;;5142819;27;20068;-77
2022/07/06 09:06:10;;;;;;;8.73;1.67;;;;;;;;;;5122534;27;20078;-83
2022/07/06 09:08:36;;;;;;;7.28;1.65;;;;;;;;;;5147745;27;20097;-72
2022/07/06 09:11:03;;;;;;;12.48;1.70;;;;;;;;;;5143850;27;20474;-79
2022/07/06 09:13:29;;;;;;;9.27;2.08;;;;;;;;;;5147614;27;20458;-81
2022/07/06 09:15:56;;;;;;;5.95;1.52;;;;;;;;;;5140337;27;20038;-72
2022/07/06 09:18:22;;;;;;;9.23;2.13;;;;;;;;;;5139276;27;20034;-72
2022/07/06 09:20:48;;;;;;;8.90;1.90;;;;;;;;;;5149601;27;20042;-76
2022/07/06 09:23:17;;;;;;;9.57;1.70;;;;;;;;;;5149565;27;20061;-73
2022/07/06 09:25:48;;;;;;;8.93;1.80;;;;;;;;;;5142237;27;20111;-76
2022/07/06 09:28:14;;;;;;;8.20;1.90;;;;;;;;;;5125618;27;20069;-84
2022/07/06 09:30:41;;;;;;;6.53;1.83;;;;;;;;;;5145812;27;20159;-82
2022/07/06 09:33:09;;;;;;;9.38;1.70;;;;;;;;;;5138056;27;20042;-75
2022/07/06 09:35:38;;;;;;;9.10;1.80;;;;;;;;;;5149166;27;20489;-66
2022/07/06 09:38:04;;;;;;;8.57;1.95;;;;;;;;;;5124769;27;20050;-84
2022/07/06 09:40:31;;;;;;;8.32;1.73;;;;;;;;;;5148447;27;20058;-73
2022/07/06 09:43:08;;;;;;;8.20;1.85;;;;;;;;;;5142455;27;20034;-78
2022/07/06 09:45:38;;;;;;;8.30;1.80;;;;;;;;;;5119575;27;20046;-78
2022/07/06 09:48:09;;;;;;;7.45;1.95;;;;;;;;;;5139071;27;20363;-86
2022/07/06 09:50:39;;;;;;;7.57;1.50;;;;;;;;;;5111427;27;20415;-73
2022/07/06 09:53:05;;;;;;;8.20;1.80;;;;;;;;;;5125408;27;20059;-76
2022/07/06 09:55:31;;;;;;;6.13;1.40;;;;;;;;;;5146515;27;20057;-81
2022/07/06 09:57:58;;;;;;;7.63;1.70;;;;;;;;;;5141644;27;20123;-82
2022/07/06 10:00:24;;;;;;;6.82;1.60;;;;;;;;;;5143383;27;20061;-72
2022/07/06 10:02:51;;;;;;;10.10;1.83;;;;;;;;;;5141265;27;20111;-75
2022/07/06 10:05:18;;;;;;;6.40;1.52;;;;;;;;;;5130758;27;20201;-68
2022/07/06 10:07:49;;;;;;;8.27;1.60;;;;;;;;;;5119598;27;20435;-75
2022/07/06 10:10:15;;;;;;;6.05;1.67;;;;;;;;;;5104790;27;20405;-78
2022/07/06 10:12:43;;;;;;;7.60;1.67;;;;;;;;;;5133204;27;20038;-71
2022/07/06 10:15:09;;;;;;;7.75;1.70;;;;;;;;;;5151339;27;20462;-77
2022/07/06 10:17:36;;;;;;;5.20;1.65;;;;;;;;;;5147794;27;20043;-69
2022/07/06 10:20:01;;;;;;;;;;;;;;;;;;5141325;27;20043;-71
2022/07/06 10:22:28;;;;;;;8.93;1.83;;;;;;;;;;5133137;27;19919;-71
2022/07/06 10:24:54;;;;;;;8.18;1.88;;;;;;;;;;5132863;27;20523;-75
2022/07/06 10:27:20;;;;;;;;;;;;;;;;;;5132751;27;20070;-71
2022/07/06 10:29:46;;;;;;;7.60;1.88;;;;;;;;;;5136427;27;20362;-68
2022/07/06 10:32:12;;;;;;;6.47;1.75;;;;;;;;;;5152991;27;20186;-74
2022/07/06 10:34:38;;;;;;;;;;;;;;;;;;5145147;27;20050;-68
2022/07/06 10:37:04;;;;;;;7.00;1.67;;;;;;;;;;5148812;27;19919;-83
2022/07/06 10:42:37;;;;;;;10.57;2.20;;;;;;;;;;5132671;27;20423;-72
2022/07/06 10:45:03;;;;;;;7.75;1.80;;;;;;;;;;5132555;27;20043;-71
2022/07/06 10:47:30;;;;;;;;;;;;;;;;;;5146259;27;20042;-74
2022/07/06 10:49:59;;;;;;;9.20;1.95;;;;;;;;;;5152345;27;19923;-75
2022/07/06 10:52:45;;;;;;;5.32;1.65;;;;;;;;;;5152474;27;20043;-68
2022/07/06 10:55:30;;;;;;;8.00;1.95;;;;;;;;;;5133565;27;20086;-69
2022/07/06 10:57:56;;;;;;;10.38;1.85;;;;;;;;;;5132856;27;20055;-76
2022/07/06 11:00:22;;;;;;;;;;;;;;;;;;5152621;27;20055;-67
2022/07/06 11:02:48;;;;;;;6.10;1.67;;;;;;;;;;5152071;27;19927;-74
2022/07/06 11:05:14;;;;;;;;;;;;;;;;;;5134364;27;20494;-74
2022/07/06 11:07:50;;;;;;;7.85;1.60;;;;;;;;;;5151930;27;19937;-78
2022/07/06 11:10:16;;;;;;;9.20;1.75;;;;;;;;;;5146875;27;20039;-74
2022/07/06 11:12:45;;;;;;;5.80;1.40;;;;;;;;;;5150451;27;20047;-67
2022/07/06 11:15:11;;;;;;;6.30;1.50;;;;;;;;;;5137097;27;20051;-75
2022/07/06 11:17:37;;;;;;;11.95;1.80;;;;;;;;;;5131343;27;20403;-65
2022/07/06 11:20:11;;;;;;;6.22;1.70;;;;;;;;;;5131398;27;20082;-82
2022/07/06 11:22:38;;;;;;;6.10;1.70;;;;;;;;;;5132883;27;20039;-80
2022/07/06 11:25:04;;;;;;;9.13;1.88;;;;;;;;;;5133070;27;20105;-67
2022/07/06 11:27:30;;;;;;;5.75;1.50;;;;;;;;;;5151580;27;20047;-72
2022/07/06 11:29:56;;;;;;;5.43;1.60;;;;;;;;;;5143574;27;20054;-78
2022/07/06 11:32:26;;;;;;;10.45;1.73;;;;;;;;;;5136627;27;20467;-75
2022/07/06 11:34:52;;;;;;;8.48;1.70;;;;;;;;;;5137107;27;20047;-75
2022/07/06 11:37:20;;;;;;;;;;;;;;;;;;5142942;27;20043;-76
2022/07/06 11:39:46;;;;;;;5.80;1.73;;;;;;;;;;5119578;27;20014;-78
2022/07/06 11:42:14;;;;;;;6.53;1.70;;;;;;;;;;5130079;27;20047;-72
2022/07/06 11:44:41;;;;;;;8.30;2.00;;;;;;;;;;5128450;27;20247;-83
2022/07/06 11:47:07;;;;;;;7.32;1.70;;;;;;;;;;5132815;27;20057;-73
2022/07/06 11:49:35;;;;;;;6.10;1.70;;;;;;;;;;5138938;27;20053;-79
2022/07/06 11:52:05;;;;;;;6.07;1.73;;;;;;;;;;5143258;27;20039;-71
2022/07/06 11:54:32;;;;;;;9.15;1.98;;;;;;;;;;5150614;27;20051;-74
2022/07/06 11:56:59;;;;;;;5.32;1.80;;;;;;;;;;5147508;27;20058;-70
2022/07/06 11:59:26;;;;;;;6.97;1.83;;;;;;;;;;5151062;27;20078;-73
2022/07/06 12:01:59;;;;;;;5.82;1.75;;;;;;;;;;5124785;27;20089;-69
2022/07/06 12:04:26;;;;;;;6.63;1.70;;;;;;;;;;5131820;27;20050;-73
2022/07/06 12:06:52;;;;;;;9.75;1.90;;;;;;;;;;5145505;27;20115;-75
2022/07/06 12:09:20;;;;;;;9.02;1.73;;;;;;;;;;5149725;27;20062;-72
2022/07/06 12:11:47;;;;;;;5.53;1.70;;;;;;;;;;5139528;27;20114;-72
2022/07/06 12:14:17;;;;;;;7.43;1.90;;;;;;;;;;5133989;27;20034;-74
2022/07/06 12:16:44;;;;;;;6.35;1.70;;;;;;;;;;5146796;27;20140;-71
2022/07/06 12:19:11;;;;;;;6.85;1.60;;;;;;;;;;5146165;27;20078;-70
2022/07/06 12:21:42;;;;;;;5.15;2.08;;;;;;;;;;5121306;27;20142;-71
2022/07/06 12:24:08;;;;;;;6.68;1.67;;;;;;;;;;5148123;27;20050;-73
2022/07/06 12:26:34;;;;;;;;;;;;;;;;;;5123481;27;20474;-73
2022/07/06 12:29:01;;;;;;;6.97;1.70;;;;;;;;;;5130344;27;19969;-73
2022/07/06 12:31:37;;;;;;;7.10;2.03;;;;;;;;;;5142072;27;20975;-76
2022/07/06 12:34:04;;;;;;;8.55;1.80;;;;;;;;;;5142361;27;20051;-78
2022/07/06 12:36:30;;;;;;;7.03;1.92;;;;;;;;;;5132812;27;20089;-77
2022/07/06 12:38:57;;;;;;;9.35;2.00;;;;;;;;;;5134170;27;20115;-78
2022/07/06 12:41:26;;;;;;;6.68;1.65;;;;;;;;;;5129878;27;20051;-82
2022/07/06 12:44:00;;;;;;;5.85;1.58;;;;;;;;;;5126421;27;20393;-71
2022/07/06 12:46:28;;;;;;;6.53;1.85;;;;;;;;;;5142020;27;20077;-70
2022/07/06 12:48:54;;;;;;;7.60;1.98;;;;;;;;;;5140287;27;20063;-75
2022/07/06 12:51:21;;;;;;;5.20;1.60;;;;;;;;;;5150037;27;20073;-68
2022/07/06 12:53:47;;;;;;;5.05;1.80;;;;;;;;;;5146078;27;20184;-73
2022/07/06 12:56:13;;;;;;;;;;;;;;;;;;5139075;27;20065;-83
2022/07/06 12:58:40;;;;;;;7.53;1.70;;;;;;;;;;5144674;27;19919;-78
2022/07/06 13:01:06;;;;;;;5.28;1.65;;;;;;;;;;5140365;27;20045;-76
2022/07/06 13:03:32;;;;;;;;;;;;;;;;;;5137471;27;20404;-80
2022/07/06 13:05:58;;;;;;;8.20;1.63;;;;;;;;;;5138183;27;20022;-73
2022/07/06 13:08:24;;;;;;;9.10;2.00;;;;;;;;;;5149416;27;20518;-72
2022/07/06 13:10:50;;;;;;;5.78;1.80;;;;;;;;;;5146668;27;20380;-73
2022/07/06 13:13:16;;;;;;;5.65;1.60;;;;;;;;;;5132738;27;20055;-75
2022/07/06 13:15:42;;;;;;;3.28;1.50;;;;;;;;;;5109439;27;20055;-70
2022/07/06 13:18:09;;;;;;;7.25;2.05;;;;;;;;;;5142411;27;20054;-76
2022/07/06 13:20:34;;;;;;;;;;;;;;;;;;5113959;27;20360;-77
2022/07/06 13:23:00;;;;;;;10.05;1.85;;;;;;;;;;5110717;27;19942;-79
2022/07/06 13:25:27;;;;;;;11.07;2.25;;;;;;;;;;5146822;27;20118;-70
2022/07/06 13:27:53;;;;;;;7.70;1.80;;;;;;;;;;5139009;27;20081;-73
2022/07/06 13:30:19;;;;;;;8.13;2.00;;;;;;;;;;5140426;27;20042;-70
2022/07/06 13:32:45;;;;;;;;;;;;;;;;;;5138265;27;20039;-72
2022/07/06 13:35:11;;;;;;;6.65;1.67;;;;;;;;;;5130359;27;19942;-74
2022/07/06 13:37:37;;;;;;;;;;;;;;;;;;5149087;27;20510;-84
2022/07/06 13:40:03;;;;;;;9.18;1.70;;;;;;;;;;5144887;27;20011;-68
2022/07/06 13:42:29;;;;;;;8.75;2.20;;;;;;;;;;5134856;27;20507;-71
2022/07/06 13:44:55;;;;;;;6.20;1.67;;;;;;;;;;5144393;27;20086;-74
2022/07/06 13:47:21;;;;;;;6.90;1.80;;;;;;;;;;5146069;27;20107;-73
2022/07/06 13:49:47;;;;;;;10.90;2.55;;;;;;;;;;5146236;27;20045;-71
2022/07/06 13:52:14;;;;;;;7.28;1.80;;;;;;;;;;5129637;27;20043;-71
2022/07/06 13:54:40;;;;;;;6.05;1.73;;;;;;;;;;5145405;27;20294;-69
2022/07/06 13:57:06;;;;;;;10.40;2.03;;;;;;;;;;5133694;27;20043;-75
2022/07/06 13:59:32;;;;;;;11.10;2.30;;;;;;;;;;5136273;27;20074;-69
2022/07/06 14:01:58;;;;;;;;;;;;;;;;;;5135986;27;20099;-74
2022/07/06 14:04:24;;;;;;;6.63;2.00;;;;;;;;;;5130372;27;20005;-69
2022/07/06 14:06:50;;;;;;;7.93;2.20;;;;;;;;;;5140780;27;20387;-66
2022/07/06 14:09:16;;;;;;;;;;;;;;;;;;5128208;28;20062;-70
2022/07/06 14:11:42;;;;;;;8.27;1.88;;;;;;;;;;5128564;27;20060;-70
2022/07/06 14:14:08;;;;;;;8.13;1.92;;;;;;;;;;5136091;27;20147;-68
2022/07/06 14:16:35;;;;;;;9.00;2.03;;;;;;;;;;5133658;27;20047;-82
2022/07/06 14:19:02;;;;;;;9.77;2.13;;;;;;;;;;5132662;27;20086;-71
2022/07/06 14:21:28;;;;;;;8.65;1.90;;;;;;;;;;5146296;27;20074;-80
2022/07/06 14:23:54;;;;;;;8.88;2.08;;;;;;;;;;5147053;27;20145;-79
2022/07/06 14:26:20;;;;;;;;;;;;;;;;;;5136342;27;20121;-73
2022/07/06 14:28:46;;;;;;;13.82;2.28;;;;;;;;;;5128346;27;19965;-75
2022/07/06 14:31:13;;;;;;;11.90;2.47;;;;;;;;;;5144896;27;20050;-67
2022/07/06 14:33:39;;;;;;;8.48;2.08;;;;;;;;;;5148326;27;20135;-73
2022/07/06 14:36:05;;;;;;;;;;;;;;;;;;5142787;27;20049;-73
2022/07/06 14:38:31;;;;;;;7.03;2.13;;;;;;;;;;5128329;28;19919;-68
2022/07/06 14:40:57;;;;;;;10.93;2.70;;;;;;;;;;5144240;27;20198;-68
2022/07/06 14:43:24;;;;;;;6.93;2.13;;;;;;;;;;5143809;27;20039;-72
2022/07/06 14:45:51;;;;;;;9.48;2.30;;;;;;;;;;5134044;27;20139;-69
2022/07/06 14:48:17;;;;;;;11.85;2.38;;;;;;;;;;5136421;27;20103;-75
2022/07/06 14:50:43;;;;;;;12.05;2.70;;;;;;;;;;5133291;27;20050;-75
2022/07/06 14:53:09;;;;;;;8.98;2.45;;;;;;;;;;5129979;27;20051;-70